Asbury Park, New Jersey
Current Conditions -  °F | °C
As of 10:15 AM on Wednesday 26 Nov 2014 (Local Time) from KBLM Reporting Station
Overcast Overcast  
Wind Chill:   Ceiling: 600
Heat Index:   Visibility: 5mi
Dew Point:   Wind: 12mph
Humidity: 75%   Direction: 10°N
Pressure: 30.09"   Gusts: 20mph
Location:  40.22°N, 74.01°W
Report Text: KBLM 261515Z AUTO 01010G17KT 5SM BKN006 OVC014 04/00 A3009 RMK AO1 P0005
Loading
Personal Weather Stations






























Interactive Weather Map New forecast layout! Learn more

10-Day Weather Forecast

Advertisements
Track Severe Weather on mobile